createdAt,value
2023-05-20T00:05:32.572Z,8.02
2023-05-20T00:20:32.781Z,7.92
2023-05-20T00:35:33.210Z,7.60
2023-05-20T00:50:34.041Z,7.69
2023-05-20T01:05:34.576Z,7.35
2023-05-20T01:20:35.577Z,7.13
2023-05-20T01:35:35.990Z,6.99
2023-05-20T01:50:36.981Z,7.06
2023-05-20T02:05:37.535Z,7.06
2023-05-20T02:20:38.418Z,7.10
2023-05-20T02:35:38.752Z,7.10
2023-05-20T02:50:38.939Z,7.06
2023-05-20T03:05:39.683Z,7.06
2023-05-20T03:20:40.332Z,7.40
2023-05-20T03:35:40.546Z,7.58
2023-05-20T03:50:40.706Z,8.15
2023-05-20T04:05:40.752Z,8.96
2023-05-20T04:20:40.994Z,9.90
2023-05-20T04:35:41.318Z,10.34
2023-05-20T04:50:41.597Z,10.45
2023-05-20T05:05:41.633Z,10.44
2023-05-20T05:20:42.026Z,10.32
2023-05-20T05:35:42.116Z,10.56
2023-05-20T05:50:43.317Z,10.81
2023-05-20T06:05:43.881Z,11.06
2023-05-20T06:20:44.179Z,11.54
2023-05-20T06:35:44.898Z,12.01
2023-05-20T06:50:45.019Z,12.46
2023-05-20T07:05:45.322Z,12.68
2023-05-20T07:20:45.694Z,12.75
2023-05-20T07:35:45.435Z,13.01
2023-05-20T07:50:45.948Z,13.44
2023-05-20T08:05:46.077Z,13.82
2023-05-20T08:20:46.172Z,14.40
2023-05-20T08:35:46.280Z,15.31
2023-05-20T08:50:46.504Z,16.11
2023-05-20T09:05:46.670Z,16.53
2023-05-20T09:20:47.107Z,17.21
2023-05-20T09:35:47.448Z,17.79
2023-05-20T09:50:47.643Z,18.26
2023-05-20T10:05:47.845Z,18.12
2023-05-20T10:20:47.878Z,17.77
2023-05-20T10:35:48.191Z,17.58
2023-05-20T10:50:48.411Z,18.18
2023-05-20T11:05:48.702Z,18.39
2023-05-20T11:20:50.007Z,18.42
2023-05-20T11:35:50.475Z,18.95
2023-05-20T11:50:50.615Z,19.46
2023-05-20T12:05:50.550Z,20.54
2023-05-20T12:20:51.109Z,20.74
2023-05-20T12:35:50.974Z,21.77
2023-05-20T12:50:51.404Z,22.27
2023-05-20T13:05:51.583Z,22.72
2023-05-20T13:20:51.789Z,22.79
2023-05-20T13:35:51.921Z,23.63
2023-05-20T13:50:52.203Z,23.68
2023-05-20T14:05:52.416Z,23.78
2023-05-20T14:20:52.531Z,24.52
2023-05-20T14:35:52.634Z,25.20
2023-05-20T14:50:52.851Z,26.25
2023-05-20T15:05:53.183Z,25.83
2023-05-20T15:20:53.441Z,25.62
2023-05-20T15:35:53.625Z,25.77
2023-05-20T15:50:54.007Z,25.57
2023-05-20T16:05:55.053Z,24.85
2023-05-20T16:20:55.258Z,23.38
2023-05-20T16:35:55.447Z,22.10
2023-05-20T16:50:55.670Z,21.12
2023-05-20T17:05:55.961Z,20.36
2023-05-20T17:20:56.143Z,19.96
2023-05-20T17:35:56.357Z,19.68
2023-05-20T17:50:56.369Z,19.39
2023-05-20T18:05:56.618Z,18.91
2023-05-20T18:20:56.870Z,18.44
2023-05-20T18:35:57.095Z,17.90
2023-05-20T18:50:57.276Z,17.37
2023-05-20T19:06:01.301Z,16.79
2023-05-20T19:21:01.323Z,16.46
2023-05-20T19:36:01.470Z,16.12
2023-05-20T19:51:01.650Z,15.86
2023-05-20T20:06:02.520Z,15.71
2023-05-20T20:21:02.609Z,15.36
2023-05-20T20:36:02.784Z,15.10
2023-05-20T20:51:03.272Z,14.89
2023-05-20T21:06:03.848Z,14.50
2023-05-20T21:21:03.993Z,14.10
2023-05-20T21:36:04.453Z,13.81
2023-05-20T21:51:04.572Z,13.71
2023-05-20T22:06:04.773Z,13.67
2023-05-20T22:21:05.266Z,13.48
2023-05-20T22:36:05.377Z,13.29
2023-05-20T22:51:05.605Z,13.29
2023-05-20T23:06:05.809Z,13.19
2023-05-20T23:21:07.161Z,13.10
2023-05-20T23:36:07.278Z,12.68
2023-05-20T23:51:07.545Z,12.39
